Time;durP1;ratioP1;P1;durP2;ratioP2;P2;SDS_P1;SDS_P2;PMS_P1;PMS_P2;Temp;Humidity;BMP_temperature;BMP_pressure;BME280_temperature;BME280_humidity;BME280_pressure;Samples;Min_cycle;Max_cycle;Signal;HPM_P1;HPM_P2
2023/06/01 00:02:24;;;;;;;9.13;2.67;;;;;;;22.45;49.74;100429.47;5015208;28;20434;-63
2023/06/01 00:04:50;;;;;;;8.07;2.37;;;;;;;22.44;50.04;100424.91;5020465;28;20649;-63
2023/06/01 00:07:15;;;;;;;4.70;2.70;;;;;;;22.42;50.14;100419.56;5006965;28;20600;-62
2023/06/01 00:09:41;;;;;;;6.67;2.83;;;;;;;22.43;50.42;100414.63;4973976;28;20201;-64
2023/06/01 00:12:07;;;;;;;7.27;2.80;;;;;;;22.41;50.44;100412.16;5016316;28;20232;-62
2023/06/01 00:14:33;;;;;;;5.07;2.57;;;;;;;22.43;50.33;100414.63;5016660;28;20204;-63
2023/06/01 00:16:58;;;;;;;4.53;2.60;;;;;;;22.41;50.33;100417.06;5010346;28;20409;-62
2023/06/01 00:19:25;;;;;;;9.03;3.10;;;;;;;22.41;50.34;100409.28;5007748;28;20177;-62
2023/06/01 00:21:53;;;;;;;6.07;2.80;;;;;;;22.40;50.29;100410.50;5007904;28;20158;-62
2023/06/01 00:24:19;;;;;;;5.13;2.80;;;;;;;22.40;50.39;100409.69;5025499;28;20450;-62
2023/06/01 00:26:45;;;;;;;3.90;2.30;;;;;;;22.41;50.33;100417.06;5031059;28;20411;-62
2023/06/01 00:29:10;;;;;;;4.50;2.50;;;;;;;22.40;50.81;100410.50;5030964;28;20411;-63
2023/06/01 00:31:35;;;;;;;6.27;2.53;;;;;;;22.39;50.26;100408.88;5029835;28;20203;-62
2023/06/01 00:34:01;;;;;;;5.70;2.63;;;;;;;22.38;50.59;100409.28;5016123;28;20204;-62
2023/06/01 00:36:26;;;;;;;5.37;2.73;;;;;;;22.37;50.79;100405.56;5028954;28;20165;-62
2023/06/01 00:38:52;;;;;;;5.60;2.20;;;;;;;22.39;50.89;100413.78;5017834;28;20189;-63
2023/06/01 00:41:17;;;;;;;6.00;2.87;;;;;;;22.37;50.31;100399.81;5010415;28;20248;-62
2023/06/01 00:43:43;;;;;;;5.43;3.20;;;;;;;22.37;50.40;100399.81;5012502;28;20195;-63
2023/06/01 00:46:09;;;;;;;8.23;3.20;;;;;;;22.37;50.84;100405.56;5014020;28;20176;-63
2023/06/01 00:48:35;;;;;;;5.50;2.90;;;;;;;22.37;50.99;100410.50;5030749;28;20184;-62
2023/06/01 00:51:00;;;;;;;4.10;2.50;;;;;;;22.37;50.62;100401.88;5027129;28;20444;-62
2023/06/01 00:53:26;;;;;;;6.10;2.77;;;;;;;22.36;50.61;100400.19;5030909;28;20176;-63
2023/06/01 00:55:51;;;;;;;4.60;2.23;;;;;;;22.36;50.78;100403.06;5026676;28;20181;-63
2023/06/01 00:58:17;;;;;;;8.97;2.83;;;;;;;22.37;50.30;100401.88;5030583;28;20203;-63
2023/06/01 01:00:42;;;;;;;6.57;2.50;;;;;;;22.36;50.91;100398.16;5030609;28;20188;-62
2023/06/01 01:03:09;;;;;;;5.33;2.60;;;;;;;22.36;50.59;100395.28;5030585;28;20513;-63
2023/06/01 01:05:37;;;;;;;5.70;2.90;;;;;;;22.35;50.82;100398.56;5024930;28;20184;-62
2023/06/01 01:08:27;;;;;;;5.17;3.03;;;;;;;22.34;51.23;100394.88;5029302;28;20518;-62
2023/06/01 01:10:59;;;;;;;9.00;2.53;;;;;;;22.35;51.14;100399.41;5026400;28;20486;-63
2023/06/01 01:13:34;;;;;;;4.80;2.40;;;;;;;22.34;51.06;100394.88;5009427;28;20486;-62
2023/06/01 01:16:07;;;;;;;4.07;2.00;;;;;;;22.34;50.72;100388.28;5009096;28;20414;-62
2023/06/01 01:18:39;;;;;;;5.93;2.30;;;;;;;22.34;51.12;100385.41;5027407;28;20443;-63
2023/06/01 01:21:21;;;;;;;5.90;2.43;;;;;;;22.33;51.16;100393.19;5028264;28;20439;-63
2023/06/01 01:24:06;;;;;;;5.60;2.60;;;;;;;22.32;50.87;100385.81;5016713;28;20451;-62
2023/06/01 01:26:57;;;;;;;8.83;2.53;;;;;;;22.33;50.88;100386.66;5011419;28;20443;-62
2023/06/01 01:29:23;;;;;;;6.40;2.23;;;;;;;22.33;50.98;100386.66;5009443;28;20888;-63
2023/06/01 01:31:49;;;;;;;5.87;2.40;;;;;;;22.32;50.87;100385.81;4993938;28;20466;-62
2023/06/01 01:34:15;;;;;;;3.60;2.10;;;;;;;22.31;51.24;100378.41;5015656;28;20532;-62
2023/06/01 01:36:40;;;;;;;6.43;2.50;;;;;;;22.32;50.68;100385.81;5008301;28;20442;-62
2023/06/01 01:39:06;;;;;;;4.70;2.40;;;;;;;22.32;50.87;100382.13;5008875;28;20201;-63
2023/06/01 01:41:31;;;;;;;7.50;2.60;;;;;;;22.31;51.41;100384.16;5010121;28;20232;-62
2023/06/01 01:43:58;;;;;;;4.23;2.60;;;;;;;22.31;51.35;100381.28;5024758;28;20204;-62
2023/06/01 01:46:27;;;;;;;5.23;2.37;;;;;;;22.31;51.07;100386.22;5028073;28;20275;-62
2023/06/01 01:49:18;;;;;;;4.00;2.53;;;;;;;22.30;51.22;100384.56;5017806;28;20447;-63
2023/06/01 01:51:54;;;;;;;4.80;2.50;;;;;;;22.30;51.15;100381.69;5010089;28;20558;-62
2023/06/01 01:54:20;;;;;;;4.10;2.30;;;;;;;22.31;51.10;100386.22;5020356;28;20522;-62
2023/06/01 01:56:45;;;;;;;4.07;2.40;;;;;;;22.29;50.79;100385.81;5009562;28;20431;-62
2023/06/01 01:59:10;;;;;;;3.30;2.23;;;;;;;22.30;50.91;100388.28;5009392;28;20177;-63
2023/06/01 02:01:37;;;;;;;4.47;2.47;;;;;;;22.28;51.21;100379.22;5011405;28;20192;-63
2023/06/01 02:04:03;;;;;;;6.63;2.57;;;;;;;22.29;51.02;100374.28;5028156;28;20223;-63
2023/06/01 02:06:28;;;;;;;8.97;3.30;;;;;;;22.28;51.40;100381.28;5019909;28;20919;-62
2023/06/01 02:08:54;;;;;;;8.50;2.63;;;;;;;22.28;51.24;100372.66;5008348;28;20432;-62
2023/06/01 02:11:20;;;;;;;7.80;2.90;;;;;;;22.27;51.43;100377.56;5011981;28;21800;-63
2023/06/01 02:13:46;;;;;;;4.30;2.07;;;;;;;22.28;51.50;100373.47;5015707;28;20781;-62
2023/06/01 02:16:11;;;;;;;4.30;2.23;;;;;;;22.26;51.03;100378.81;5011127;28;20411;-63
2023/06/01 02:18:39;;;;;;;7.30;2.60;;;;;;;22.27;51.28;100371.81;5017062;28;20440;-62
2023/06/01 02:21:05;;;;;;;4.53;2.30;;;;;;;22.26;51.01;100375.94;5008763;28;20172;-63
2023/06/01 02:23:30;;;;;;;6.57;2.40;;;;;;;22.26;50.99;100381.69;5008515;28;20456;-63
2023/06/01 02:25:56;;;;;;;6.70;1.90;;;;;;;22.25;51.42;100368.53;5013118;28;20864;-62
2023/06/01 02:28:21;;;;;;;4.67;2.70;;;;;;;22.26;51.54;100370.19;5014009;28;20180;-63
2023/06/01 02:30:47;;;;;;;4.30;2.70;;;;;;;22.25;51.22;100364.81;5008681;28;20223;-62
2023/06/01 02:33:12;;;;;;;4.07;2.27;;;;;;;22.25;51.57;100359.91;5010880;28;20227;-62
2023/06/01 02:35:38;;;;;;;6.90;2.90;;;;;;;22.25;51.38;100370.56;5025652;28;20270;-62
2023/06/01 02:38:04;;;;;;;4.10;2.50;;;;;;;22.24;51.45;100375.53;5023660;28;20193;-63
2023/06/01 02:40:30;;;;;;;5.47;2.40;;;;;;;22.24;51.75;100369.78;5007980;28;20408;-63
2023/06/01 02:42:55;;;;;;;4.50;2.20;;;;;;;22.25;51.59;100370.56;5020141;28;20807;-62
2023/06/01 02:45:21;;;;;;;4.13;2.63;;;;;;;22.24;51.61;100366.91;5010778;28;20219;-62
2023/06/01 02:47:46;;;;;;;3.93;2.23;;;;;;;22.24;51.26;100375.53;5007068;28;20181;-62
2023/06/01 02:50:12;;;;;;;4.00;2.47;;;;;;;22.24;51.67;100375.53;5010561;28;20227;-62
2023/06/01 02:52:38;;;;;;;3.80;2.30;;;;;;;22.23;51.37;100378.78;5009243;28;20735;-62
2023/06/01 02:55:04;;;;;;;5.40;2.00;;;;;;;22.23;51.41;100375.91;5008717;28;20189;-62
2023/06/01 02:57:30;;;;;;;5.60;2.33;;;;;;;22.22;50.81;100375.09;5010992;28;20181;-62
2023/06/01 02:59:55;;;;;;;3.93;2.13;;;;;;;22.23;51.25;100381.69;5008340;28;20416;-62
2023/06/01 03:02:21;;;;;;;4.10;2.33;;;;;;;22.22;51.27;100382.91;5012788;28;20183;-62
2023/06/01 03:04:48;;;;;;;4.43;2.50;;;;;;;22.22;51.48;100377.97;5027295;28;20176;-63
2023/06/01 03:07:14;;;;;;;5.17;2.27;;;;;;;22.21;51.78;100379.19;5021265;28;20519;-62
2023/06/01 03:09:39;;;;;;;3.83;2.60;;;;;;;22.20;51.89;100371.81;5009397;28;20463;-62
2023/06/01 03:12:06;;;;;;;5.37;2.33;;;;;;;22.21;51.46;100378.34;5007125;28;20240;-63
2023/06/01 03:14:31;;;;;;;4.63;2.57;;;;;;;22.20;51.91;100373.84;5016887;28;20230;-63
2023/06/01 03:16:57;;;;;;;5.60;2.50;;;;;;;22.20;51.71;100371.81;5026304;28;20798;-62
2023/06/01 03:19:22;;;;;;;5.57;2.00;;;;;;;22.19;51.66;100375.91;5022809;28;20203;-62
2023/06/01 03:21:48;;;;;;;6.40;2.67;;;;;;;22.19;51.85;100370.16;5024425;28;20180;-63
2023/06/01 03:24:13;;;;;;;4.97;2.60;;;;;;;22.19;51.47;100386.56;5010657;28;20191;-63
2023/06/01 03:26:38;;;;;;;5.30;2.80;;;;;;;22.18;51.89;100379.19;5024778;28;20168;-62
2023/06/01 03:29:04;;;;;;;6.03;2.40;;;;;;;22.18;51.55;100379.19;5028027;28;20176;-63
2023/06/01 03:31:30;;;;;;;5.03;2.30;;;;;;;22.17;51.71;100381.22;5026916;28;20199;-62
2023/06/01 03:33:56;;;;;;;6.23;2.77;;;;;;;22.18;51.63;100385.75;5014129;28;20575;-63
2023/06/01 03:36:22;;;;;;;3.50;2.50;;;;;;;22.18;51.55;100394.38;5025997;28;20286;-63
2023/06/01 03:38:47;;;;;;;4.73;2.30;;;;;;;22.18;51.89;100384.94;5014875;28;20199;-62
2023/06/01 03:41:12;;;;;;;6.17;2.63;;;;;;;22.17;51.65;100383.28;5006422;28;20424;-62
2023/06/01 03:43:38;;;;;;;4.63;2.37;;;;;;;22.16;52.12;100381.63;5023766;28;20188;-62
2023/06/01 03:46:03;;;;;;;4.63;2.30;;;;;;;22.16;51.67;100390.25;5027277;28;20219;-62
2023/06/01 03:48:29;;;;;;;5.17;3.00;;;;;;;22.15;52.07;100380.81;5024659;28;20177;-62
2023/06/01 03:50:54;;;;;;;5.30;2.57;;;;;;;22.15;51.52;100392.31;5028114;28;20258;-63
2023/06/01 03:53:20;;;;;;;6.30;2.20;;;;;;;22.15;51.95;100389.44;5026438;28;20907;-63
2023/06/01 03:55:47;;;;;;;4.33;2.47;;;;;;;22.15;51.57;100389.44;5023457;28;20164;-63
2023/06/01 03:58:13;;;;;;;4.63;2.70;;;;;;;22.15;51.72;100398.06;5009290;28;20212;-63
2023/06/01 04:00:39;;;;;;;4.80;2.33;;;;;;;22.14;51.83;100396.44;5010890;28;20503;-63
2023/06/01 04:03:07;;;;;;;4.83;2.67;;;;;;;22.13;52.07;100400.50;5010916;28;20192;-62
2023/06/01 04:05:32;;;;;;;6.47;2.67;;;;;;;22.14;51.91;100395.59;5023584;28;20625;-62
2023/06/01 04:07:58;;;;;;;4.67;2.40;;;;;;;22.14;52.06;100395.59;5025818;28;20430;-63
2023/06/01 04:10:23;;;;;;;4.67;2.77;;;;;;;22.14;51.77;100395.59;5013984;28;20220;-62
2023/06/01 04:12:49;;;;;;;4.37;2.30;;;;;;;22.13;51.56;100403.38;5043463;28;20227;-63
2023/06/01 04:15:15;;;;;;;7.13;2.77;;;;;;;22.12;51.62;100398.88;5033442;28;20527;-63
2023/06/01 04:17:41;;;;;;;4.50;2.67;;;;;;;22.12;52.09;100398.88;5051608;28;20164;-63
2023/06/01 04:20:10;;;;;;;4.77;3.00;;;;;;;22.13;51.75;100403.38;5009127;28;20443;-62
2023/06/01 04:22:36;;;;;;;4.47;2.37;;;;;;;22.13;52.15;100399.69;5030979;28;21336;-62
2023/06/01 04:25:03;;;;;;;3.30;2.13;;;;;;;22.12;51.70;100412.44;5031096;28;20423;-62
2023/06/01 04:27:29;;;;;;;4.77;2.40;;;;;;;22.12;52.06;100403.81;5031355;28;20414;-63
2023/06/01 04:29:54;;;;;;;3.17;2.40;;;;;;;22.13;52.17;100414.88;5028132;28;20493;-62
2023/06/01 04:32:22;;;;;;;4.20;2.47;;;;;;;22.13;51.98;100412.00;5031380;28;20188;-62
2023/06/01 04:34:49;;;;;;;4.53;2.60;;;;;;;22.15;51.97;100405.84;5027163;28;20238;-63
2023/06/01 04:37:15;;;;;;;5.77;2.60;;;;;;;22.15;51.89;100415.31;4993682;28;20416;-61
2023/06/01 04:39:42;;;;;;;5.40;2.90;;;;;;;22.17;51.91;100407.09;5011693;28;20737;-63
2023/06/01 04:42:08;;;;;;;5.77;2.50;;;;;;;22.18;51.65;100411.63;4997668;28;20435;-62
2023/06/01 04:44:34;;;;;;;4.73;2.30;;;;;;;22.19;51.69;100416.19;5032927;28;20435;-63
2023/06/01 04:47:03;;;;;;;5.53;2.30;;;;;;;22.19;51.58;100418.22;5024526;28;20193;-63
2023/06/01 04:49:30;;;;;;;6.17;2.77;;;;;;;22.19;51.46;100407.53;5010267;28;20408;-62
2023/06/01 04:51:55;;;;;;;7.00;2.70;;;;;;;22.19;51.67;100416.19;4993213;28;20455;-63
2023/06/01 04:54:20;;;;;;;5.70;2.83;;;;;;;22.19;51.77;100419.06;5010592;28;20547;-62
2023/06/01 04:56:46;;;;;;;3.47;2.00;;;;;;;22.17;52.90;100424.38;5000142;28;20199;-63
2023/06/01 04:59:12;;;;;;;8.40;3.20;;;;;;;22.15;52.72;100420.25;5013179;28;20207;-62
2023/06/01 05:01:39;;;;;;;4.20;2.70;;;;;;;22.14;52.42;100416.56;5028026;28;20180;-62
2023/06/01 05:04:04;;;;;;;5.73;2.67;;;;;;;22.14;52.19;100419.44;5030457;28;20180;-63
2023/06/01 05:06:30;;;;;;;5.20;2.43;;;;;;;22.15;52.03;100423.13;5027875;28;20435;-62
2023/06/01 05:08:55;;;;;;;7.07;2.33;;;;;;;22.15;52.42;100426.00;5011589;28;20209;-63
2023/06/01 05:11:21;;;;;;;4.77;2.53;;;;;;;22.15;52.17;100423.13;5009716;28;20204;-62
2023/06/01 05:13:46;;;;;;;6.63;3.10;;;;;;;22.15;52.27;100428.88;5012973;28;20595;-63
2023/06/01 05:16:12;;;;;;;3.57;2.07;;;;;;;22.15;51.94;100426.81;5008854;28;20180;-62
2023/06/01 05:18:38;;;;;;;4.20;2.40;;;;;;;22.15;52.09;100429.72;5019940;28;20188;-62
2023/06/01 05:21:03;;;;;;;4.27;2.50;;;;;;;22.15;52.05;100423.94;5036477;28;20189;-62
2023/06/01 05:23:29;;;;;;;4.83;2.73;;;;;;;22.15;52.36;100421.06;5010378;28;20169;-62
2023/06/01 05:26:03;;;;;;;5.07;2.93;;;;;;;22.17;52.49;100418.59;5012873;28;20192;-62
2023/06/01 05:28:32;;;;;;;5.43;2.37;;;;;;;22.18;52.61;100425.19;5009229;28;20168;-62
2023/06/01 05:30:58;;;;;;;5.43;2.30;;;;;;;22.20;52.18;100423.56;5021780;28;20427;-63
2023/06/01 05:33:23;;;;;;;5.47;2.90;;;;;;;22.21;52.11;100425.22;5015535;28;20469;-63
2023/06/01 05:35:48;;;;;;;5.10;2.57;;;;;;;22.19;52.05;100419.06;5017093;28;20185;-62
2023/06/01 05:38:14;;;;;;;6.43;2.50;;;;;;;22.19;52.75;100421.94;5017284;28;20204;-63
2023/06/01 05:40:39;;;;;;;4.27;2.23;;;;;;;22.19;52.06;100421.94;5022506;28;20180;-63
2023/06/01 05:43:06;;;;;;;4.73;2.60;;;;;;;22.19;52.58;100416.19;5021190;28;20215;-62
2023/06/01 05:45:32;;;;;;;6.60;2.83;;;;;;;22.18;52.26;100422.31;5015129;28;20212;-63
2023/06/01 05:47:57;;;;;;;5.17;2.47;;;;;;;22.16;52.35;100419.84;5024742;28;20439;-63
2023/06/01 05:50:23;;;;;;;5.43;2.57;;;;;;;22.16;52.89;100411.22;5022904;28;20193;-62
2023/06/01 05:52:48;;;;;;;7.83;3.10;;;;;;;22.28;52.98;100419.47;5019486;28;20212;-62
2023/06/01 05:55:14;;;;;;;7.37;3.90;;;;;;;22.60;55.67;100414.75;5029715;28;21024;-62
2023/06/01 05:57:39;;;;;;;9.37;4.33;;;;;;;22.84;56.17;100419.75;4989258;28;20606;-62
2023/06/01 06:00:09;;;;;;;6.10;3.67;;;;;;;22.72;56.30;100419.31;5020105;28;20219;-62
2023/06/01 06:02:35;;;;;;;7.73;3.90;;;;;;;22.54;54.86;100418.41;5013216;28;20181;-62
2023/06/01 06:05:01;;;;;;;5.50;2.87;;;;;;;22.56;55.07;100413.91;5016063;28;20505;-61
2023/06/01 06:07:26;;;;;;;5.93;3.27;;;;;;;22.52;54.09;100413.06;5028586;28;20172;-63
2023/06/01 06:09:52;;;;;;;6.43;3.10;;;;;;;22.55;54.34;100420.88;5023250;28;20937;-61
2023/06/01 06:12:17;;;;;;;9.23;2.90;;;;;;;22.54;53.89;100418.41;5012527;28;20636;-62
2023/06/01 06:14:42;;;;;;;9.40;3.60;;;;;;;22.52;53.17;100415.94;5016412;28;20599;-63
2023/06/01 06:17:08;;;;;;;8.30;2.90;;;;;;;22.47;53.01;100416.31;5012442;28;21216;-62
2023/06/01 06:19:34;;;;;;;5.03;2.30;;;;;;;22.53;53.30;100419.66;5025779;28;20569;-62
2023/06/01 06:21:59;;;;;;;5.60;2.73;;;;;;;22.49;53.01;100421.69;5023862;28;20247;-63
2023/06/01 06:24:25;;;;;;;6.60;2.97;;;;;;;22.51;52.29;100411.41;5019922;28;20184;-61
2023/06/01 06:26:50;;;;;;;5.70;2.57;;;;;;;22.51;52.42;100417.16;5028282;28;20172;-61
2023/06/01 06:29:16;;;;;;;5.80;2.77;;;;;;;22.49;52.62;100424.56;5013850;28;20181;-62
2023/06/01 06:31:42;;;;;;;6.93;2.60;;;;;;;22.47;52.27;100427.03;5020538;28;20204;-62
2023/06/01 06:34:08;;;;;;;4.97;2.57;;;;;;;22.46;52.15;100425.34;5021739;28;20208;-62
2023/06/01 06:36:34;;;;;;;8.13;3.00;;;;;;;22.46;52.29;100426.19;5023000;28;20439;-63
2023/06/01 06:38:59;;;;;;;8.20;2.60;;;;;;;22.44;51.75;100425.78;5025792;28;20518;-62
2023/06/01 06:41:25;;;;;;;11.10;3.20;;;;;;;22.41;52.45;100435.16;5028520;28;20169;-62
2023/06/01 06:43:50;;;;;;;5.13;2.67;;;;;;;22.43;52.51;100434.78;5027113;28;20234;-62
2023/06/01 06:46:16;;;;;;;8.20;2.70;;;;;;;22.43;52.47;100432.69;5012801;28;20188;-61
2023/06/01 06:48:41;;;;;;;8.37;3.50;;;;;;;22.50;53.40;100437.69;5012114;28;20189;-63
2023/06/01 06:51:07;;;;;;;8.65;3.10;;;;;;;22.59;53.26;100429.53;5023905;28;20262;-62
2023/06/01 06:53:33;;;;;;;7.30;3.13;;;;;;;22.66;53.62;100435.28;5009538;28;20200;-61
2023/06/01 06:55:58;;;;;;;11.00;2.90;;;;;;;22.66;53.80;100436.13;5020787;28;20187;-61
2023/06/01 06:58:24;;;;;;;7.87;3.67;;;;;;;22.70;53.79;100434.09;5010641;28;20187;-61
2023/06/01 07:00:50;;;;;;;19.80;3.07;;;;;;;22.69;54.23;100438.22;5026970;28;20180;-62
2023/06/01 07:03:16;;;;;;;8.00;3.30;;;;;;;22.72;54.38;100448.88;5026601;28;20184;-61
2023/06/01 07:05:44;;;;;;;9.60;3.07;;;;;;;22.70;54.46;100439.84;5016261;28;20177;-62
2023/06/01 07:08:10;;;;;;;6.73;3.27;;;;;;;22.61;54.38;100438.56;5020267;28;21307;-63
2023/06/01 07:10:35;;;;;;;7.23;2.83;;;;;;;22.60;54.31;100442.69;5024513;28;20419;-61
2023/06/01 07:13:00;;;;;;;7.27;3.27;;;;;;;22.60;53.86;100437.75;5027680;28;20224;-62
2023/06/01 07:15:26;;;;;;;12.50;2.80;;;;;;;22.56;53.27;100444.72;5018874;28;20183;-62
2023/06/01 07:17:51;;;;;;;12.50;3.83;;;;;;;22.54;52.26;100444.31;5010370;28;20187;-61
2023/06/01 07:20:17;;;;;;;8.10;3.60;;;;;;;22.59;52.18;100449.66;5006279;28;20165;-62
2023/06/01 07:22:43;;;;;;;6.50;2.73;;;;;;;22.63;52.84;100448.44;5022241;28;20215;-62
2023/06/01 07:25:09;;;;;;;6.80;2.53;;;;;;;22.65;52.98;100440.25;5021352;28;20180;-61
2023/06/01 07:27:37;;;;;;;9.33;3.10;;;;;;;22.63;53.48;100444.75;5023707;28;20180;-62
2023/06/01 07:30:03;;;;;;;6.40;3.00;;;;;;;22.60;53.22;100442.69;5025340;28;20442;-62
2023/06/01 07:32:29;;;;;;;9.27;2.87;;;;;;;22.61;53.18;100439.41;5028317;28;20447;-62
2023/06/01 07:34:57;;;;;;;5.10;2.43;;;;;;;22.60;53.49;100442.69;5028751;28;21245;-62
2023/06/01 07:37:23;;;;;;;6.10;2.57;;;;;;;22.58;53.45;100443.06;5033370;28;20255;-63
2023/06/01 07:39:49;;;;;;;6.37;2.80;;;;;;;22.58;53.89;100445.94;5034949;28;20485;-62
2023/06/01 07:42:15;;;;;;;8.40;2.90;;;;;;;22.58;54.02;100445.94;5023781;28;20921;-62
2023/06/01 07:44:40;;;;;;;6.30;3.20;;;;;;;22.57;53.83;100443.50;5029119;28;20695;-62
2023/06/01 07:47:06;;;;;;;6.30;3.07;;;;;;;22.53;53.48;100437.72;5007636;28;20181;-62
2023/06/01 07:49:31;;;;;;;9.70;3.07;;;;;;;22.52;53.75;100441.81;5016883;28;20177;-62
2023/06/01 07:51:58;;;;;;;13.00;3.10;;;;;;;22.49;53.87;100442.66;5028544;28;20589;-62
2023/06/01 07:54:24;;;;;;;5.23;2.73;;;;;;;22.48;53.95;100440.19;5026445;28;20212;-61
2023/06/01 07:56:49;;;;;;;7.13;2.77;;;;;;;22.47;53.29;100438.53;5027409;28;20522;-63
2023/06/01 07:59:15;;;;;;;16.63;3.33;;;;;;;22.49;53.45;100439.78;5032980;28;20184;-63
2023/06/01 08:01:41;;;;;;;10.03;2.90;;;;;;;22.51;53.54;100427.84;5027237;28;20980;-61
2023/06/01 08:04:06;;;;;;;4.93;2.67;;;;;;;22.50;53.35;100444.28;5015918;28;20188;-62
2023/06/01 08:06:35;;;;;;;8.53;3.10;;;;;;;22.51;53.73;100437.31;5013507;28;20640;-62
2023/06/01 08:09:02;;;;;;;6.40;2.73;;;;;;;22.52;53.51;100436.06;5013996;28;20208;-62
2023/06/01 08:11:27;;;;;;;6.53;2.60;;;;;;;22.52;53.57;100433.19;5013123;28;20416;-62
2023/06/01 08:13:53;;;;;;;5.97;3.10;;;;;;;22.51;53.25;100437.31;5017416;28;20454;-62
2023/06/01 08:16:18;;;;;;;6.90;2.80;;;;;;;22.51;53.77;100431.56;5033503;28;20187;-61
2023/06/01 08:18:45;;;;;;;10.30;3.10;;;;;;;22.52;53.27;100435.25;5028235;28;20227;-62
2023/06/01 08:21:10;;;;;;;7.90;2.60;;;;;;;22.51;53.96;100425.78;5013619;28;20896;-62
2023/06/01 08:23:36;;;;;;;4.47;2.50;;;;;;;22.52;53.74;100424.56;5013646;28;20637;-62
2023/06/01 08:26:01;;;;;;;5.90;3.00;;;;;;;22.53;54.11;100425.41;5024130;28;20249;-62
2023/06/01 08:28:27;;;;;;;10.00;3.50;;;;;;;22.53;54.01;100431.97;5031705;28;20274;-62
2023/06/01 08:30:52;;;;;;;11.63;3.97;;;;;;;22.53;53.46;100425.41;5028836;28;20196;-62
2023/06/01 08:33:18;;;;;;;5.50;3.03;;;;;;;22.53;53.89;100420.44;5022146;28;20212;-62
2023/06/01 08:35:43;;;;;;;7.80;2.73;;;;;;;22.53;53.76;100417.56;5033080;28;20188;-62
2023/06/01 08:38:08;;;;;;;5.97;2.80;;;;;;;22.52;54.08;100418.81;5031858;28;20175;-62
2023/06/01 08:40:34;;;;;;;11.80;3.47;;;;;;;22.52;53.74;100427.44;5015644;28;20513;-63
2023/06/01 08:43:06;;;;;;;6.47;2.60;;;;;;;22.53;53.57;100416.75;5020889;28;20924;-62
2023/06/01 08:45:32;;;;;;;10.33;2.90;;;;;;;22.53;53.24;100416.75;5010365;28;20189;-62
2023/06/01 08:47:58;;;;;;;5.97;3.23;;;;;;;22.52;53.07;100421.69;5020604;28;20950;-62
2023/06/01 08:50:23;;;;;;;5.37;3.07;;;;;;;22.53;53.35;100417.56;5029969;28;20211;-62
2023/06/01 08:52:49;;;;;;;4.87;2.33;;;;;;;22.53;53.64;100414.69;5024783;28;20201;-62
2023/06/01 08:55:15;;;;;;;8.13;3.10;;;;;;;22.53;53.54;100411.81;5028757;28;20153;-61
2023/06/01 08:57:41;;;;;;;5.63;2.43;;;;;;;22.53;53.17;100408.94;5025202;28;20439;-62
2023/06/01 09:00:08;;;;;;;7.10;2.53;;;;;;;22.53;53.51;100411.81;5011954;28;20197;-62
2023/06/01 09:02:33;;;;;;;5.20;3.20;;;;;;;22.55;53.03;100405.66;5009846;28;20419;-62
2023/06/01 09:04:59;;;;;;;5.20;2.70;;;;;;;22.55;53.10;100402.78;5015905;28;20451;-61
2023/06/01 09:07:25;;;;;;;4.90;2.67;;;;;;;22.54;53.35;100401.97;5012312;28;20188;-62
2023/06/01 09:09:51;;;;;;;8.87;3.30;;;;;;;22.54;53.09;100401.97;5008121;28;20208;-62
2023/06/01 09:12:29;;;;;;;5.30;2.63;;;;;;;22.56;52.88;100405.25;5009037;28;20235;-62
2023/06/01 09:15:17;;;;;;;8.23;3.03;;;;;;;22.56;52.86;100402.38;5027461;28;20435;-61
2023/06/01 09:17:47;;;;;;;6.80;2.97;;;;;;;22.55;52.86;100394.97;5028147;28;20407;-62
2023/06/01 09:20:14;;;;;;;6.07;3.00;;;;;;;22.56;53.08;100396.63;5025293;28;20438;-62
2023/06/01 09:22:40;;;;;;;5.57;3.30;;;;;;;22.56;53.43;100392.91;5016204;28;20504;-62
2023/06/01 09:25:06;;;;;;;6.47;2.90;;;;;;;22.55;53.29;100391.28;5014885;28;20457;-62
2023/06/01 09:27:49;;;;;;;4.60;2.80;;;;;;;22.55;52.83;100389.22;5022327;28;20485;-62
2023/06/01 09:30:14;;;;;;;5.50;2.80;;;;;;;22.55;53.10;100392.09;5009981;28;20413;-61
2023/06/01 09:32:41;;;;;;;8.60;3.03;;;;;;;22.56;53.30;100390.88;5018928;28;20470;-62
2023/06/01 09:35:07;;;;;;;4.30;2.30;;;;;;;22.56;52.65;100388.00;5005522;28;20287;-61
2023/06/01 09:37:34;;;;;;;6.70;3.23;;;;;;;22.55;52.76;100383.47;5018739;28;20498;-62
2023/06/01 09:40:00;;;;;;;7.47;3.17;;;;;;;22.55;53.36;100380.59;5027785;28;20444;-62
2023/06/01 09:42:35;;;;;;;7.27;3.37;;;;;;;22.56;52.93;100378.53;5027118;28;20473;-62
2023/06/01 09:45:22;;;;;;;4.53;3.00;;;;;;;22.54;53.03;100370.31;5009526;28;20180;-62
2023/06/01 09:47:48;;;;;;;8.37;2.90;;;;;;;22.55;52.96;100374.84;5010159;28;20442;-62
2023/06/01 09:50:36;;;;;;;6.13;2.87;;;;;;;22.56;53.11;100367.00;5012459;28;20761;-61
2023/06/01 09:53:02;;;;;;;4.13;2.67;;;;;;;22.57;52.76;100369.50;4992540;28;20877;-62
2023/06/01 09:55:27;;;;;;;5.10;2.63;;;;;;;22.56;53.48;100370.72;5019111;28;20439;-61
2023/06/01 09:58:14;;;;;;;8.57;3.30;;;;;;;22.57;52.86;100363.72;5009520;28;20181;-62
2023/06/01 10:00:40;;;;;;;5.77;2.60;;;;;;;22.56;53.27;100355.50;5006975;28;20272;-62
2023/06/01 10:03:06;;;;;;;5.87;2.77;;;;;;;22.55;53.37;100357.56;5026571;28;20423;-61
2023/06/01 10:05:32;;;;;;;4.67;2.43;;;;;;;22.57;53.10;100357.97;5024388;28;20181;-62
2023/06/01 10:07:57;;;;;;;8.23;3.23;;;;;;;22.58;53.17;100347.31;5033836;28;20435;-62
2023/06/01 10:10:22;;;;;;;8.40;2.47;;;;;;;22.57;53.57;100345.66;5009520;28;20205;-61
2023/06/01 10:12:48;;;;;;;4.90;3.00;;;;;;;22.57;53.20;100342.78;5021609;28;20231;-61
2023/06/01 10:15:13;;;;;;;6.57;3.17;;;;;;;22.57;53.31;100340.72;5024942;28;20658;-62
2023/06/01 10:17:42;;;;;;;9.70;3.17;;;;;;;22.57;53.48;100345.66;5014179;28;20937;-62
2023/06/01 10:20:08;;;;;;;6.20;3.20;;;;;;;22.56;53.29;100344.81;5009573;28;20235;-61
2023/06/01 10:22:34;;;;;;;4.70;2.87;;;;;;;22.57;53.71;100340.72;5003983;28;20828;-62
2023/06/01 10:25:00;;;;;;;7.67;3.10;;;;;;;22.58;53.54;100348.09;5017197;28;20493;-63
2023/06/01 10:27:44;;;;;;;7.70;3.50;;;;;;;22.58;53.43;100336.59;5038916;28;20181;-61
2023/06/01 10:30:10;;;;;;;7.13;2.90;;;;;;;22.58;53.60;100339.47;5024906;28;20211;-62
2023/06/01 10:32:43;;;;;;;5.83;3.23;;;;;;;22.58;53.76;100336.59;5018934;28;20464;-63
2023/06/01 10:35:10;;;;;;;5.37;3.13;;;;;;;22.58;53.54;100338.66;5018466;28;20187;-61
2023/06/01 10:37:35;;;;;;;7.97;3.13;;;;;;;22.58;53.23;100336.59;5016273;28;21320;-63
2023/06/01 10:40:20;;;;;;;7.10;3.60;;;;;;;22.58;53.13;100336.59;5007634;28;20439;-63
2023/06/01 10:42:46;;;;;;;10.27;3.67;;;;;;;22.59;53.46;100332.50;5016703;28;20188;-62
2023/06/01 10:45:33;;;;;;;5.87;3.57;;;;;;;22.59;53.12;100332.50;5007415;28;20411;-63
2023/06/01 10:47:58;;;;;;;9.10;3.67;;;;;;;22.60;53.16;100337.03;5013824;28;20220;-62
2023/06/01 10:50:24;;;;;;;6.17;3.40;;;;;;;22.61;53.18;100338.66;5012265;28;20447;-61
2023/06/01 10:52:50;;;;;;;5.67;3.17;;;;;;;22.58;53.66;100330.84;5017989;28;20489;-62
2023/06/01 10:55:16;;;;;;;6.97;3.33;;;;;;;22.59;53.12;100328.81;5014321;28;20193;-62
2023/06/01 10:57:45;;;;;;;7.40;3.30;;;;;;;22.58;53.89;100325.09;5008451;28;20470;-62
2023/06/01 11:00:17;;;;;;;8.50;3.60;;;;;;;22.59;53.74;100323.88;5008443;28;20184;-62
2023/06/01 11:02:52;;;;;;;5.93;3.60;;;;;;;22.59;53.57;100326.75;5012530;28;20846;-61
2023/06/01 11:05:36;;;;;;;6.10;3.10;;;;;;;22.60;53.82;100327.56;5009765;28;20443;-62
2023/06/01 11:08:06;;;;;;;7.23;3.60;;;;;;;22.59;53.19;100321.00;5021834;28;20434;-62
2023/06/01 11:10:50;;;;;;;8.23;3.53;;;;;;;22.60;53.82;100316.88;5006376;28;20951;-61
2023/06/01 11:13:19;;;;;;;7.37;3.07;;;;;;;22.60;53.53;100318.94;5026422;28;20994;-62
2023/06/01 11:16:10;;;;;;;7.13;3.90;;;;;;;22.58;53.84;100313.56;5014467;28;20947;-61
2023/06/01 11:19:17;;;;;;;6.70;3.50;;;;;;;22.60;53.81;100316.88;5009830;28;20440;-61
2023/06/01 11:21:43;;;;;;;10.93;3.60;;;;;;;22.61;53.75;100307.03;5000944;28;20428;-62
2023/06/01 11:24:15;;;;;;;5.30;3.43;;;;;;;22.61;53.55;100311.94;5014809;28;20440;-63
2023/06/01 11:26:48;;;;;;;7.20;3.93;;;;;;;22.60;53.20;100311.13;5025109;28;20188;-62